Reform, Mississippi
Current Conditions -  °F | °C
As of 10:50 AM on Friday 21 Nov 2014 (Local Time) from KGTR Reporting Station
Broken Clouds Broken Clouds  
Wind Chill: 16°   Ceiling: 5000
Heat Index: 16°   Visibility: 10mi
Dew Point:   Wind: 7mph
Humidity: 59%   Direction: 140°SE
Pressure: 30.36"   Gusts: NA
Location:  33.3679°N, 89.2097°W
Report Text: KGTR 211650Z 14006KT 10SM BKN050 16/08 A3036
Loading
Personal Weather Stations






























Interactive Weather Map New forecast layout! Learn more

10-Day Weather Forecast

Advertisements
Track Severe Weather on mobile